createdAt,value
2018-04-16T00:02:05.130Z,99.90
2018-04-16T00:04:31.808Z,99.90
2018-04-16T00:06:58.819Z,99.90
2018-04-16T00:09:25.624Z,99.90
2018-04-16T00:11:52.399Z,99.90
2018-04-16T00:14:19.547Z,99.90
2018-04-16T00:16:46.291Z,99.90
2018-04-16T00:19:13.026Z,99.90
2018-04-16T00:21:39.868Z,99.90
2018-04-16T00:24:06.716Z,99.90
2018-04-16T00:26:33.556Z,99.90
2018-04-16T00:29:00.398Z,99.90
2018-04-16T00:31:33.279Z,99.90
2018-04-16T00:34:08.418Z,99.90
2018-04-16T00:36:41.000Z,99.90
2018-04-16T00:39:16.686Z,99.90
2018-04-16T00:41:49.602Z,99.90
2018-04-16T00:44:22.616Z,99.90
2018-04-16T00:46:55.574Z,99.90
2018-04-16T00:49:28.585Z,99.90
2018-04-16T00:52:02.352Z,99.90
2018-04-16T00:54:35.072Z,99.90
2018-04-16T00:57:08.061Z,99.90
2018-04-16T00:59:40.839Z,99.90
2018-04-16T01:02:13.828Z,99.90
2018-04-16T01:07:57.074Z,99.90
2018-04-16T01:10:29.855Z,99.90
2018-04-16T01:13:04.836Z,99.90
2018-04-16T01:15:38.325Z,99.90
2018-04-16T01:18:11.938Z,99.90
2018-04-16T01:20:44.661Z,99.90
2018-04-16T01:23:19.637Z,99.90
2018-04-16T01:25:53.274Z,99.90
2018-04-16T01:28:27.006Z,99.90
2018-04-16T01:30:59.862Z,99.90
2018-04-16T01:33:33.490Z,99.90
2018-04-16T01:36:06.372Z,99.90
2018-04-16T01:38:39.285Z,99.90
2018-04-16T01:41:12.042Z,99.90
2018-04-16T01:43:44.824Z,99.90
2018-04-16T01:46:17.704Z,99.90
2018-04-16T01:48:50.695Z,99.90
2018-04-16T01:51:23.529Z,99.90
2018-04-16T01:53:57.164Z,99.90
2018-04-16T01:56:30.167Z,99.90
2018-04-16T01:59:02.932Z,99.90
2018-04-16T02:01:35.929Z,99.90
2018-04-16T02:07:25.827Z,99.90
2018-04-16T02:09:58.715Z,99.90
2018-04-16T02:12:31.892Z,99.90
2018-04-16T02:15:05.304Z,99.90
2018-04-16T02:17:38.157Z,99.90
2018-04-16T02:20:14.757Z,99.90
2018-04-16T02:22:47.743Z,99.90
2018-04-16T02:25:22.883Z,99.90
2018-04-16T02:27:55.869Z,99.90
2018-04-16T02:30:28.538Z,99.90
2018-04-16T02:33:03.478Z,99.90
2018-04-16T02:35:37.138Z,99.90
2018-04-16T02:40:48.476Z,99.90
2018-04-16T02:43:21.478Z,99.90
2018-04-16T02:45:55.169Z,99.90
2018-04-16T02:48:28.049Z,99.90
2018-04-16T02:51:01.035Z,99.90
2018-04-16T02:53:33.641Z,99.90
2018-04-16T02:56:06.500Z,99.90
2018-04-16T03:01:18.617Z,99.90
2018-04-16T03:03:53.650Z,99.90
2018-04-16T03:06:26.956Z,99.90
2018-04-16T03:08:59.723Z,99.90
2018-04-16T03:11:32.610Z,99.90
2018-04-16T03:14:05.700Z,99.90
2018-04-16T03:19:40.669Z,99.90
2018-04-16T03:22:15.687Z,99.90
2018-04-16T03:24:48.777Z,99.90
2018-04-16T03:27:23.356Z,99.90
2018-04-16T03:29:56.900Z,99.90
2018-04-16T03:32:29.987Z,99.90
2018-04-16T03:35:02.963Z,99.90
2018-04-16T03:37:38.009Z,99.90
2018-04-16T03:40:10.792Z,99.90
2018-04-16T03:42:43.882Z,99.90
2018-04-16T03:45:16.865Z,99.90
2018-04-16T03:47:49.647Z,99.90
2018-04-16T03:50:24.320Z,99.90
2018-04-16T03:52:57.008Z,99.90
2018-04-16T03:55:39.463Z,99.90
2018-04-16T03:58:06.301Z,99.90
2018-04-16T04:00:33.243Z,99.90
2018-04-16T04:02:59.909Z,99.90
2018-04-16T04:05:26.829Z,99.90
2018-04-16T04:07:53.674Z,99.90
2018-04-16T04:10:20.615Z,99.90
2018-04-16T04:12:47.326Z,99.90
2018-04-16T04:15:14.197Z,99.90
2018-04-16T04:17:40.934Z,99.90
2018-04-16T04:20:07.780Z,99.90
2018-04-16T04:22:46.807Z,99.90
2018-04-16T04:25:25.731Z,99.90
2018-04-16T04:28:04.864Z,99.90
2018-04-16T04:30:33.829Z,99.90
2018-04-16T04:33:00.597Z,99.90
2018-04-16T04:35:27.511Z,99.90
2018-04-16T04:37:54.998Z,99.90
2018-04-16T04:40:21.737Z,99.90
2018-04-16T04:42:48.990Z,99.90
2018-04-16T04:45:15.643Z,99.90
2018-04-16T04:47:42.272Z,99.90
2018-04-16T04:50:09.001Z,99.90
2018-04-16T04:52:35.741Z,99.90
2018-04-16T04:55:02.483Z,99.90
2018-04-16T04:57:29.154Z,99.90
2018-04-16T04:59:56.067Z,99.90
2018-04-16T05:02:22.916Z,99.90
2018-04-16T05:04:49.577Z,99.90
2018-04-16T05:07:16.491Z,99.90
2018-04-16T05:09:43.329Z,99.90
2018-04-16T05:12:10.043Z,99.90
2018-04-16T05:14:36.744Z,99.90
2018-04-16T05:17:04.268Z,99.90
2018-04-16T05:19:31.112Z,99.90
2018-04-16T05:21:58.058Z,99.90
2018-04-16T05:24:24.827Z,99.90
2018-04-16T05:26:51.477Z,99.90
2018-04-16T05:29:18.378Z,99.90
2018-04-16T05:31:45.220Z,99.90
2018-04-16T05:34:12.065Z,99.90
2018-04-16T05:36:38.908Z,99.90
2018-04-16T05:39:05.657Z,99.90
2018-04-16T05:41:32.284Z,99.90
2018-04-16T05:43:59.535Z,99.90
2018-04-16T05:46:26.377Z,99.90
2018-04-16T05:48:53.117Z,99.90
2018-04-16T05:51:19.955Z,99.90
2018-04-16T05:53:46.651Z,99.90
2018-04-16T05:56:13.404Z,99.90
2018-04-16T05:58:40.379Z,99.90
2018-04-16T06:01:07.119Z,99.90
2018-04-16T06:03:33.967Z,99.90
2018-04-16T06:06:01.319Z,99.90
2018-04-16T06:08:28.057Z,99.90
2018-04-16T06:10:55.004Z,99.90
2018-04-16T06:13:21.850Z,99.90
2018-04-16T06:15:48.587Z,99.90
2018-04-16T06:18:15.397Z,99.90
2018-04-16T06:20:42.988Z,99.90
2018-04-16T06:23:09.863Z,99.90
2018-04-16T06:25:36.669Z,99.90
2018-04-16T06:28:03.420Z,99.90
2018-04-16T06:30:30.169Z,99.90
2018-04-16T06:32:56.897Z,99.90
2018-04-16T06:35:23.734Z,99.90
2018-04-16T06:37:50.473Z,99.90
2018-04-16T06:40:17.316Z,99.90
2018-04-16T06:42:43.965Z,99.90
2018-04-16T06:45:10.629Z,99.90
2018-04-16T06:47:37.536Z,99.90
2018-04-16T06:50:04.277Z,99.90
2018-04-16T06:52:31.115Z,99.90
2018-04-16T06:54:57.960Z,99.90
2018-04-16T06:57:24.704Z,99.90
2018-04-16T06:59:51.385Z,99.90
2018-04-16T07:02:18.158Z,99.90
2018-04-16T07:04:45.944Z,99.90
2018-04-16T07:07:12.576Z,99.90
2018-04-16T07:09:39.321Z,99.90
2018-04-16T07:12:06.386Z,99.90
2018-04-16T07:14:33.042Z,99.90
2018-04-16T07:16:59.848Z,99.90
2018-04-16T07:19:26.582Z,99.90
2018-04-16T07:21:53.428Z,99.90
2018-04-16T07:24:20.171Z,99.90
2018-04-16T07:26:47.012Z,99.90
2018-04-16T07:29:13.955Z,99.40
2018-04-16T07:31:40.692Z,98.90
2018-04-16T07:34:07.410Z,98.50
2018-04-16T07:36:34.553Z,98.00
2018-04-16T07:39:01.320Z,97.50
2018-04-16T07:41:28.065Z,97.20
2018-04-16T07:43:54.877Z,96.80
2018-04-16T07:46:22.265Z,96.40
2018-04-16T07:48:49.001Z,96.20
2018-04-16T07:51:16.225Z,96.00
2018-04-16T07:53:43.678Z,95.80
2018-04-16T07:56:11.268Z,95.50
2018-04-16T07:58:37.933Z,95.40
2018-04-16T08:01:04.745Z,95.00
2018-04-16T08:03:31.489Z,94.60
2018-04-16T08:05:58.333Z,94.10
2018-04-16T08:08:25.284Z,93.80
2018-04-16T08:10:52.220Z,93.70
2018-04-16T08:13:19.062Z,93.20
2018-04-16T08:15:45.734Z,92.70
2018-04-16T08:18:12.432Z,92.20
2018-04-16T08:20:39.282Z,91.90
2018-04-16T08:23:06.126Z,91.50
2018-04-16T08:25:32.865Z,91.10
2018-04-16T08:27:59.707Z,90.60
2018-04-16T08:30:26.448Z,90.30
2018-04-16T08:32:53.158Z,90.20
2018-04-16T08:35:20.591Z,87.80
2018-04-16T08:37:47.281Z,87.60
2018-04-16T08:40:13.934Z,87.00
2018-04-16T08:42:40.573Z,85.90
2018-04-16T08:45:07.402Z,84.90
2018-04-16T08:47:34.053Z,84.50
2018-04-16T08:50:00.879Z,84.40
2018-04-16T08:52:27.723Z,83.80
2018-04-16T08:54:54.377Z,83.60
2018-04-16T08:57:21.061Z,82.80
2018-04-16T08:59:48.442Z,80.00
2018-04-16T09:02:15.210Z,79.60
2018-04-16T09:04:41.921Z,79.70
2018-04-16T09:07:08.673Z,79.00
2018-04-16T09:09:35.357Z,78.10
2018-04-16T09:12:02.167Z,76.90
2018-04-16T09:14:28.880Z,76.20
2018-04-16T09:16:55.553Z,75.20
2018-04-16T09:19:22.234Z,75.50
2018-04-16T09:21:49.621Z,75.00
2018-04-16T09:24:16.389Z,74.50
2018-04-16T09:26:43.036Z,74.90
2018-04-16T09:29:09.692Z,72.60
2018-04-16T09:31:37.170Z,73.00
2018-04-16T09:34:04.650Z,71.30
2018-04-16T09:36:32.255Z,69.60
2018-04-16T09:38:58.943Z,69.40
2018-04-16T09:41:25.591Z,69.40
2018-04-16T09:43:52.264Z,68.50
2018-04-16T09:46:18.947Z,67.50
2018-04-16T09:48:45.770Z,67.30
2018-04-16T09:51:12.450Z,67.30
2018-04-16T09:53:39.164Z,66.20
2018-04-16T09:56:06.560Z,67.00
2018-04-16T09:58:33.255Z,66.30
2018-04-16T10:01:00.817Z,67.60
2018-04-16T10:03:28.242Z,67.90
2018-04-16T10:05:55.005Z,67.80
2018-04-16T10:08:22.105Z,68.50
2018-04-16T10:10:48.748Z,68.70
2018-04-16T10:13:15.458Z,68.70
2018-04-16T10:15:42.186Z,68.80
2018-04-16T10:18:08.877Z,69.00
2018-04-16T10:20:35.621Z,69.10
2018-04-16T10:23:02.293Z,69.40
2018-04-16T10:25:29.739Z,68.80
2018-04-16T10:27:57.205Z,69.20
2018-04-16T10:30:24.588Z,69.50
2018-04-16T10:32:51.201Z,69.40
2018-04-16T10:35:18.973Z,68.80
2018-04-16T10:37:45.684Z,68.70
2018-04-16T10:40:12.342Z,68.00
2018-04-16T10:42:39.173Z,66.70
2018-04-16T10:45:06.568Z,66.10
2018-04-16T10:47:33.236Z,66.00
2018-04-16T10:49:59.960Z,64.90
2018-04-16T10:52:26.607Z,64.40
2018-04-16T10:54:53.285Z,64.40
2018-04-16T10:57:20.085Z,62.80
2018-04-16T10:59:46.749Z,62.10
2018-04-16T11:02:13.480Z,62.10
2018-04-16T11:04:40.290Z,60.70
2018-04-16T11:07:06.990Z,61.70
2018-04-16T11:09:34.529Z,60.50
2018-04-16T11:12:01.228Z,60.30
2018-04-16T11:14:27.869Z,60.40
2018-04-16T11:16:54.648Z,61.60
2018-04-16T11:19:21.324Z,62.40
2018-04-16T11:21:47.936Z,63.50
2018-04-16T11:24:15.313Z,65.40
2018-04-16T11:26:42.442Z,65.30
2018-04-16T11:29:10.009Z,67.50
2018-04-16T11:31:37.456Z,69.00
2018-04-16T11:34:04.092Z,69.00
2018-04-16T11:36:31.576Z,68.90
2018-04-16T11:38:58.422Z,68.90
2018-04-16T11:41:25.145Z,69.10
2018-04-16T11:43:52.280Z,69.10
2018-04-16T11:46:19.681Z,68.10
2018-04-16T11:48:46.390Z,68.00
2018-04-16T11:51:13.129Z,67.50
2018-04-16T11:53:39.978Z,68.40
2018-04-16T11:56:06.717Z,68.80
2018-04-16T11:58:33.342Z,69.00
2018-04-16T12:01:00.133Z,69.60
2018-04-16T12:03:26.780Z,70.00
2018-04-16T12:05:53.445Z,68.20
2018-04-16T12:08:20.273Z,67.30
2018-04-16T12:10:46.953Z,65.60
2018-04-16T12:13:13.702Z,64.50
2018-04-16T12:15:40.377Z,64.30
2018-04-16T12:18:07.145Z,65.00
2018-04-16T12:20:33.849Z,65.30
2018-04-16T12:23:00.522Z,66.20
2018-04-16T12:25:27.265Z,67.00
2018-04-16T12:27:53.976Z,68.10
2018-04-16T12:30:20.641Z,69.00
2018-04-16T12:32:48.119Z,72.70
2018-04-16T12:35:14.897Z,72.80
2018-04-16T12:37:41.689Z,74.70
2018-04-16T12:40:08.337Z,76.40
2018-04-16T12:42:35.049Z,79.10
2018-04-16T12:45:01.776Z,80.30
2018-04-16T12:47:29.225Z,81.80
2018-04-16T12:49:55.917Z,82.00
2018-04-16T12:52:23.317Z,80.40
2018-04-16T12:54:50.050Z,80.30
2018-04-16T12:57:16.709Z,80.40
2018-04-16T12:59:43.428Z,79.60
2018-04-16T13:02:10.114Z,79.40
2018-04-16T13:04:37.486Z,77.80
2018-04-16T13:07:04.224Z,77.80
2018-04-16T13:09:30.936Z,77.10
2018-04-16T13:11:57.616Z,75.50
2018-04-16T13:14:24.268Z,74.80
2018-04-16T13:16:50.954Z,73.40
2018-04-16T13:19:18.479Z,71.10
2018-04-16T13:21:45.186Z,70.40
2018-04-16T13:24:11.886Z,70.20
2018-04-16T13:26:39.489Z,69.60
2018-04-16T13:29:06.219Z,69.50
2018-04-16T13:31:33.071Z,69.40
2018-04-16T13:33:59.719Z,68.90
2018-04-16T13:36:26.366Z,68.30
2018-04-16T13:38:53.187Z,67.70
2018-04-16T13:41:19.928Z,67.10
2018-04-16T13:43:46.770Z,68.30
2018-04-16T13:46:13.630Z,68.00
2018-04-16T13:48:40.284Z,68.00
2018-04-16T13:51:07.061Z,67.70
2018-04-16T13:53:34.752Z,67.20
2018-04-16T13:56:01.417Z,66.70
2018-04-16T13:58:28.542Z,67.20
2018-04-16T14:00:55.280Z,66.60
2018-04-16T14:03:22.122Z,66.40
2018-04-16T14:05:48.939Z,65.60
2018-04-16T14:08:15.702Z,65.20
2018-04-16T14:10:42.547Z,64.80
2018-04-16T14:13:09.391Z,64.60
2018-04-16T14:15:36.330Z,65.20
2018-04-16T14:18:03.178Z,65.40
2018-04-16T14:20:29.919Z,65.10
2018-04-16T14:22:56.760Z,64.80
2018-04-16T14:25:23.602Z,64.90
2018-04-16T14:27:50.308Z,65.20
2018-04-16T14:30:17.794Z,64.50
2018-04-16T14:32:44.471Z,64.40
2018-04-16T14:35:11.893Z,64.60
2018-04-16T14:37:38.740Z,64.60
2018-04-16T14:40:05.679Z,64.80
2018-04-16T14:42:32.419Z,63.60
2018-04-16T14:44:59.156Z,63.40
2018-04-16T14:47:25.857Z,62.80
2018-04-16T14:49:52.494Z,62.00
2018-04-16T14:52:19.192Z,62.20
2018-04-16T14:54:46.244Z,62.10
2018-04-16T14:57:12.966Z,62.70
2018-04-16T14:59:39.892Z,62.60
2018-04-16T15:02:06.557Z,62.90
2018-04-16T15:04:33.253Z,62.80
2018-04-16T15:07:00.733Z,63.10
2018-04-16T15:09:27.480Z,63.00
2018-04-16T15:11:54.289Z,63.80
2018-04-16T15:14:21.001Z,63.60
2018-04-16T15:16:47.695Z,62.60
2018-04-16T15:19:14.864Z,62.60
2018-04-16T15:21:41.633Z,62.40
2018-04-16T15:24:08.290Z,62.70
2018-04-16T15:26:35.105Z,62.30
2018-04-16T15:29:01.810Z,62.40
2018-04-16T15:31:28.520Z,62.70
2018-04-16T15:33:55.978Z,62.70
2018-04-16T15:36:23.425Z,62.70
2018-04-16T15:38:50.881Z,62.60
2018-04-16T15:41:17.588Z,62.40
2018-04-16T15:43:44.945Z,63.20
2018-04-16T15:46:11.630Z,62.90
2018-04-16T15:48:38.306Z,63.50
2018-04-16T15:51:05.061Z,63.80
2018-04-16T15:53:32.490Z,63.60
2018-04-16T15:55:59.400Z,63.60
2018-04-16T15:58:26.899Z,63.90
2018-04-16T16:00:53.483Z,63.70
2018-04-16T16:03:20.123Z,64.40
2018-04-16T16:05:47.156Z,64.50
2018-04-16T16:08:14.093Z,64.70
2018-04-16T16:10:40.869Z,65.10
2018-04-16T16:13:08.009Z,64.90
2018-04-16T16:15:34.632Z,65.20
2018-04-16T16:18:01.420Z,64.80
2018-04-16T16:20:29.352Z,64.80
2018-04-16T16:22:55.929Z,64.20
2018-04-16T16:25:22.542Z,65.20
2018-04-16T16:27:49.271Z,65.40
2018-04-16T16:30:15.961Z,65.70
2018-04-16T16:32:43.309Z,66.60
2018-04-16T16:35:10.027Z,66.50
2018-04-16T16:37:36.667Z,67.20
2018-04-16T16:40:03.278Z,67.40
2018-04-16T16:42:29.870Z,68.00
2018-04-16T16:44:57.270Z,69.10
2018-04-16T16:47:23.903Z,69.10
2018-04-16T16:49:51.321Z,70.30
2018-04-16T16:52:18.174Z,70.40
2018-04-16T16:54:44.801Z,70.90
2018-04-16T16:57:12.182Z,71.80
2018-04-16T16:59:39.677Z,72.40
2018-04-16T17:02:06.297Z,72.50
2018-04-16T17:04:32.992Z,73.60
2018-04-16T17:07:00.338Z,73.40
2018-04-16T17:09:26.998Z,73.40
2018-04-16T17:11:53.795Z,73.50
2018-04-16T17:14:20.488Z,74.10
2018-04-16T17:16:48.048Z,74.70
2018-04-16T17:19:14.608Z,74.80
2018-04-16T17:21:41.164Z,75.10
2018-04-16T17:24:07.801Z,75.10
2018-04-16T17:26:34.457Z,75.70
2018-04-16T17:29:01.154Z,76.00
2018-04-16T17:31:28.275Z,76.20
2018-04-16T17:33:56.937Z,76.50
2018-04-16T17:36:24.508Z,77.30
2018-04-16T17:38:51.311Z,77.40
2018-04-16T17:41:17.874Z,78.00
2018-04-16T17:43:45.710Z,78.90
2018-04-16T17:46:12.407Z,78.90
2018-04-16T17:48:39.090Z,79.50
2018-04-16T17:51:05.701Z,79.90
2018-04-16T17:53:32.264Z,80.10
2018-04-16T17:55:58.850Z,80.30
2018-04-16T17:58:25.404Z,80.50
2018-04-16T18:00:52.081Z,80.90
2018-04-16T18:03:18.915Z,81.20
2018-04-16T18:05:45.550Z,81.50
2018-04-16T18:08:12.292Z,81.50
2018-04-16T18:10:39.134Z,81.80
2018-04-16T18:13:12.834Z,81.90
2018-04-16T18:15:39.578Z,82.30
2018-04-16T18:18:06.314Z,82.40
2018-04-16T18:20:33.058Z,82.80
2018-04-16T18:23:00.203Z,83.10
2018-04-16T18:25:27.246Z,83.50
2018-04-16T18:27:54.506Z,84.00
2018-04-16T18:30:21.244Z,84.30
2018-04-16T18:32:48.290Z,84.50
2018-04-16T18:35:15.546Z,85.00
2018-04-16T18:37:42.288Z,85.30
2018-04-16T18:40:10.869Z,86.20
2018-04-16T18:42:37.885Z,86.40
2018-04-16T18:45:04.595Z,86.40
2018-04-16T18:47:31.601Z,86.90
2018-04-16T18:49:58.234Z,87.20
2018-04-16T18:52:25.490Z,87.40
2018-04-16T18:54:52.230Z,87.70
2018-04-16T18:57:19.270Z,87.90
2018-04-16T18:59:45.904Z,88.10
2018-04-16T19:02:12.758Z,88.30
2018-04-16T19:04:39.703Z,88.60
2018-04-16T19:07:06.647Z,89.80
2018-04-16T19:09:33.382Z,89.20
2018-04-16T19:12:00.227Z,89.50
2018-04-16T19:14:27.761Z,89.80
2018-04-16T19:16:54.725Z,90.10
2018-04-16T19:19:21.473Z,90.30
2018-04-16T19:21:53.332Z,90.40
2018-04-16T19:24:20.185Z,90.60
2018-04-16T19:26:55.857Z,90.80
2018-04-16T19:29:22.768Z,90.80
2018-04-16T19:31:49.508Z,90.90
2018-04-16T19:34:22.281Z,91.00
2018-04-16T19:36:48.921Z,91.10
2018-04-16T19:39:15.662Z,91.20
2018-04-16T19:41:50.462Z,91.30
2018-04-16T19:44:17.543Z,91.50
2018-04-16T19:46:44.109Z,91.80
2018-04-16T19:49:17.054Z,92.20
2018-04-16T19:51:44.315Z,92.50
2018-04-16T19:54:11.158Z,92.80
2018-04-16T19:56:43.828Z,93.10
2018-04-16T19:59:10.681Z,93.40
2018-04-16T20:01:37.419Z,93.80
2018-04-16T20:04:04.160Z,94.00
2018-04-16T20:06:30.788Z,94.40
2018-04-16T20:08:57.639Z,95.00
2018-04-16T20:11:25.813Z,95.40
2018-04-16T20:13:52.472Z,95.60
2018-04-16T20:16:19.907Z,95.90
2018-04-16T20:18:47.944Z,96.20
2018-04-16T20:21:14.717Z,96.40
2018-04-16T20:23:41.662Z,96.30
2018-04-16T20:26:08.403Z,96.50
2018-04-16T20:28:35.044Z,96.90
2018-04-16T20:31:03.418Z,97.00
2018-04-16T20:33:30.010Z,97.20
2018-04-16T20:35:56.797Z,97.10
2018-04-16T20:38:23.433Z,97.20
2018-04-16T20:40:50.170Z,97.40
2018-04-16T20:43:16.914Z,97.50
2018-04-16T20:45:43.486Z,97.70
2018-04-16T20:48:10.901Z,97.90
2018-04-16T20:50:37.645Z,98.00
2018-04-16T20:53:04.385Z,97.90
2018-04-16T20:55:31.019Z,98.20
2018-04-16T20:57:57.866Z,98.20
2018-04-16T21:00:24.605Z,98.40
2018-04-16T21:02:51.340Z,98.40
2018-04-16T21:05:17.989Z,98.40
2018-04-16T21:07:44.718Z,98.50
2018-04-16T21:10:11.473Z,98.60
2018-04-16T21:12:38.304Z,98.70
2018-04-16T21:15:04.985Z,98.70
2018-04-16T21:17:32.603Z,98.90
2018-04-16T21:19:59.340Z,98.90
2018-04-16T21:22:25.974Z,99.00
2018-04-16T21:24:53.014Z,99.00
2018-04-16T21:27:19.564Z,99.10
2018-04-16T21:29:46.141Z,99.20
2018-04-16T21:32:12.838Z,99.30
2018-04-16T21:34:39.471Z,99.80
2018-04-16T21:37:06.073Z,99.50
2018-04-16T21:39:32.656Z,99.60
2018-04-16T21:41:59.388Z,99.60
2018-04-16T21:44:27.561Z,99.90
2018-04-16T21:46:54.213Z,99.90
2018-04-16T21:49:22.167Z,99.90
2018-04-16T21:51:49.011Z,99.90
2018-04-16T21:54:15.589Z,99.90
2018-04-16T21:56:42.290Z,99.90
2018-04-16T21:59:09.025Z,99.90
2018-04-16T22:01:37.088Z,99.90
2018-04-16T22:04:03.681Z,99.90
2018-04-16T22:06:30.367Z,99.90
2018-04-16T22:08:57.110Z,99.90
2018-04-16T22:11:23.851Z,99.90
2018-04-16T22:13:50.590Z,99.90
2018-04-16T22:16:17.326Z,99.90
2018-04-16T22:18:45.416Z,99.90
2018-04-16T22:21:11.992Z,99.90
2018-04-16T22:23:38.676Z,99.90
2018-04-16T22:26:05.621Z,99.90
2018-04-16T22:28:32.361Z,99.90
2018-04-16T22:30:58.935Z,99.90
2018-04-16T22:33:25.685Z,99.90
2018-04-16T22:35:53.061Z,99.90
2018-04-16T22:38:20.109Z,99.90
2018-04-16T22:40:46.879Z,99.90
2018-04-16T22:43:13.616Z,99.90
2018-04-16T22:45:40.564Z,99.90
2018-04-16T22:48:07.133Z,99.90
2018-04-16T22:50:34.552Z,99.90
2018-04-16T22:53:01.705Z,99.90
2018-04-16T22:55:28.325Z,99.90
2018-04-16T22:57:54.897Z,99.90
2018-04-16T23:00:22.329Z,99.90
2018-04-16T23:02:48.989Z,99.90
2018-04-16T23:05:15.815Z,99.90
2018-04-16T23:07:42.657Z,99.90
2018-04-16T23:10:09.396Z,99.90
2018-04-16T23:12:36.214Z,99.90
2018-04-16T23:15:03.183Z,99.90
2018-04-16T23:17:29.816Z,99.90
2018-04-16T23:19:56.503Z,99.90
2018-04-16T23:22:23.297Z,99.90
2018-04-16T23:24:50.143Z,99.90
2018-04-16T23:27:16.883Z,99.90
2018-04-16T23:29:43.573Z,99.90
2018-04-16T23:32:10.251Z,99.90
2018-04-16T23:34:37.102Z,99.90
2018-04-16T23:37:03.838Z,99.90
2018-04-16T23:39:30.583Z,99.90
2018-04-16T23:41:57.323Z,99.90
2018-04-16T23:44:24.063Z,99.90
2018-04-16T23:46:50.698Z,99.90
2018-04-16T23:49:17.543Z,99.90
2018-04-16T23:51:44.182Z,99.90
2018-04-16T23:54:10.917Z,99.90
2018-04-16T23:56:37.911Z,99.90
2018-04-16T23:59:04.557Z,99.90
